createdAt,value
2019-01-10T00:00:51.462Z,101863.34
2019-01-10T00:06:57.565Z,101860.54
2019-01-10T00:13:03.514Z,101881.65
2019-01-10T00:19:09.259Z,101881.27
2019-01-10T00:25:15.570Z,101878.41
2019-01-10T00:31:21.386Z,101881.05
2019-01-10T00:37:27.290Z,101887.45
2019-01-10T00:43:33.268Z,101892.47
2019-01-10T00:49:39.230Z,101897.98
2019-01-10T00:55:45.210Z,101892.33
2019-01-10T01:01:51.330Z,101892.80
2019-01-10T01:07:57.244Z,101897.76
2019-01-10T01:14:03.687Z,101907.77
2019-01-10T01:20:11.426Z,101904.58
2019-01-10T01:26:17.281Z,101917.18
2019-01-10T01:32:23.039Z,101919.27
2019-01-10T01:38:29.459Z,101923.02
2019-01-10T01:44:35.196Z,101922.52
2019-01-10T01:50:41.108Z,101935.50
2019-01-10T01:56:46.974Z,101944.12
2019-01-10T02:02:53.018Z,101964.75
2019-01-10T02:08:59.019Z,101957.77
2019-01-10T02:15:05.931Z,101970.75
2019-01-10T02:21:11.700Z,101964.73
2019-01-10T02:27:17.496Z,101969.86
2019-01-10T02:33:23.344Z,101972.52
2019-01-10T02:39:29.992Z,101973.81
2019-01-10T02:45:35.729Z,101973.99
2019-01-10T02:51:41.629Z,101982.41
2019-01-10T02:57:47.789Z,101997.94
2019-01-10T03:03:53.898Z,101997.84
2019-01-10T03:09:59.782Z,102005.31
2019-01-10T03:16:05.454Z,101992.89
2019-01-10T03:22:11.268Z,101992.80
2019-01-10T03:28:17.153Z,101986.63
2019-01-10T03:34:23.083Z,101991.59
2019-01-10T03:40:29.293Z,101989.70
2019-01-10T03:46:35.365Z,101989.78
2019-01-10T03:52:41.192Z,101987.09
2019-01-10T03:58:47.166Z,101995.63
2019-01-10T04:04:53.081Z,101997.25
2019-01-10T04:10:58.818Z,102003.19
2019-01-10T04:17:04.775Z,102001.15
2019-01-10T04:23:10.589Z,102004.48
2019-01-10T04:29:16.681Z,102000.50
2019-01-10T04:35:22.607Z,102010.50
2019-01-10T04:41:28.677Z,102003.36
2019-01-10T04:47:34.564Z,102014.80
2019-01-10T04:53:40.270Z,102018.80
2019-01-10T04:59:46.090Z,102019.83
2019-01-10T05:05:51.864Z,102021.86
2019-01-10T05:11:57.959Z,102025.44
2019-01-10T05:18:03.744Z,102022.20
2019-01-10T05:24:09.491Z,102015.63
2019-01-10T05:30:25.843Z,102020.41
2019-01-10T05:36:31.833Z,102013.02
2019-01-10T05:42:37.677Z,102011.95
2019-01-10T05:48:47.146Z,102010.52
2019-01-10T05:54:51.210Z,102007.17
2019-01-10T06:00:57.385Z,102010.83
2019-01-10T06:07:03.481Z,102025.77
2019-01-10T06:13:09.336Z,102036.30
2019-01-10T06:19:16.508Z,102035.84
2019-01-10T06:25:22.638Z,102051.23
2019-01-10T06:31:29.143Z,102054.44
2019-01-10T06:37:35.438Z,102068.80
2019-01-10T06:43:41.416Z,102066.12
2019-01-10T06:49:47.228Z,102073.59
2019-01-10T07:03:03.773Z,102082.74
2019-01-10T07:09:10.859Z,102083.91
2019-01-10T07:15:16.872Z,102099.97
2019-01-10T07:21:23.115Z,102093.32
2019-01-10T07:27:29.628Z,102106.05
2019-01-10T07:33:35.508Z,102094.54
2019-01-10T07:39:41.457Z,102102.34
2019-01-10T07:45:47.238Z,102103.94
2019-01-10T07:51:53.597Z,102111.09
2019-01-10T07:57:59.369Z,102110.12
2019-01-10T08:04:05.364Z,102113.28
2019-01-10T08:10:14.774Z,102113.61
2019-01-10T08:16:20.521Z,102118.72
2019-01-10T08:22:28.057Z,102124.89
2019-01-10T08:28:34.004Z,102134.80
2019-01-10T08:34:39.952Z,102140.92
2019-01-10T08:40:46.171Z,102150.48
2019-01-10T08:46:52.153Z,102155.52
2019-01-10T08:52:58.362Z,102164.12
2019-01-10T08:59:04.390Z,102155.77
2019-01-10T09:05:12.294Z,102159.57
2019-01-10T09:11:18.358Z,102166.40
2019-01-10T09:17:24.150Z,102170.36
2019-01-10T09:23:30.013Z,102147.77
2019-01-10T09:29:35.928Z,102168.73
2019-01-10T09:35:41.866Z,102185.55
2019-01-10T09:41:48.164Z,102189.72
2019-01-10T09:47:54.243Z,102191.67
2019-01-10T09:54:00.420Z,102190.19
2019-01-10T10:00:25.853Z,102187.92
2019-01-10T10:06:32.213Z,102190.84
2019-01-10T10:12:38.319Z,102192.70
2019-01-10T10:18:44.745Z,102201.84
2019-01-10T10:24:50.497Z,102207.09
2019-01-10T10:30:56.560Z,102218.39
2019-01-10T10:37:02.391Z,102202.09
2019-01-10T10:43:08.516Z,102206.63
2019-01-10T10:49:14.400Z,102183.54
2019-01-10T10:55:20.495Z,102198.73
2019-01-10T11:01:26.663Z,102199.50
2019-01-10T11:07:32.759Z,102203.19
2019-01-10T11:13:38.496Z,102205.23
2019-01-10T11:19:44.539Z,102204.45
2019-01-10T11:25:50.460Z,102198.09
2019-01-10T11:31:58.977Z,102184.01
2019-01-10T11:38:04.940Z,102198.61
2019-01-10T11:44:14.419Z,102189.73
2019-01-10T11:50:25.952Z,102183.16
2019-01-10T11:56:31.808Z,102176.90
2019-01-10T12:02:37.580Z,102169.84
2019-01-10T12:08:43.396Z,102171.65
2019-01-10T12:14:49.327Z,102164.30
2019-01-10T12:20:56.583Z,102156.36
2019-01-10T12:27:02.395Z,102159.25
2019-01-10T12:33:08.209Z,102160.69
2019-01-10T12:39:13.919Z,102148.06
2019-01-10T12:45:20.957Z,102138.26
2019-01-10T12:51:26.852Z,102141.98
2019-01-10T12:57:32.750Z,102141.00
2019-01-10T13:03:38.505Z,102140.19
2019-01-10T13:09:44.536Z,102139.66
2019-01-10T13:15:50.588Z,102138.53
2019-01-10T13:21:56.294Z,102144.87
2019-01-10T13:28:02.120Z,102143.83
2019-01-10T13:34:08.020Z,102149.33
2019-01-10T13:40:15.788Z,102141.44
2019-01-10T13:46:21.869Z,102143.47
2019-01-10T13:52:28.497Z,102140.03
2019-01-10T13:58:34.513Z,102148.33
2019-01-10T14:04:40.262Z,102154.28
2019-01-10T14:10:46.004Z,102147.64
2019-01-10T14:16:51.833Z,102154.16
2019-01-10T14:22:57.764Z,102147.38
2019-01-10T14:29:03.550Z,102156.09
2019-01-10T14:35:09.300Z,102145.11
2019-01-10T14:41:15.628Z,102144.34
2019-01-10T14:47:21.402Z,102142.54
2019-01-10T14:53:27.206Z,102142.34
2019-01-10T14:59:32.970Z,102139.02
2019-01-10T15:05:38.735Z,102139.88
2019-01-10T15:11:44.735Z,102146.26
2019-01-10T15:17:50.698Z,102154.93
2019-01-10T15:23:56.529Z,102152.19
2019-01-10T15:30:02.300Z,102147.31
2019-01-10T15:36:08.344Z,102144.02
2019-01-10T15:42:14.184Z,102139.83
2019-01-10T15:48:19.934Z,102139.56
2019-01-10T15:54:25.793Z,102150.61
2019-01-10T16:00:31.641Z,102144.09
2019-01-10T16:06:37.440Z,102157.67
2019-01-10T16:12:43.230Z,102149.72
2019-01-10T16:18:48.955Z,102152.41
2019-01-10T16:24:54.773Z,102153.03
2019-01-10T16:31:00.542Z,102146.62
2019-01-10T16:37:06.638Z,102148.55
2019-01-10T16:43:12.506Z,102148.97
2019-01-10T16:49:18.553Z,102146.28
2019-01-10T16:55:25.084Z,102150.66
2019-01-10T17:01:31.085Z,102145.79
2019-01-10T17:07:37.365Z,102144.09
2019-01-10T17:13:45.056Z,102140.72
2019-01-10T17:19:51.031Z,102143.53
2019-01-10T17:25:56.805Z,102143.53
2019-01-10T17:32:03.410Z,102147.78
2019-01-10T17:38:09.303Z,102158.49
2019-01-10T17:44:15.336Z,102163.25
2019-01-10T17:50:21.290Z,102162.75
2019-01-10T17:56:27.524Z,102175.61
2019-01-10T18:02:33.500Z,102172.03
2019-01-10T18:08:39.700Z,102167.50
2019-01-10T18:14:45.588Z,102165.70
2019-01-10T18:20:51.345Z,102178.06
2019-01-10T18:26:57.204Z,102173.13
2019-01-10T18:33:04.427Z,102172.23
2019-01-10T18:39:10.521Z,102172.58
2019-01-10T18:45:19.998Z,102165.63
2019-01-10T18:51:25.807Z,102157.80
2019-01-10T18:57:31.544Z,102165.31
2019-01-10T19:03:37.440Z,102165.58
2019-01-10T19:09:43.544Z,102160.36
2019-01-10T19:15:49.334Z,102160.16
2019-01-10T19:21:55.477Z,102168.11
2019-01-10T19:28:01.659Z,102168.69
2019-01-10T19:34:07.858Z,102163.85
2019-01-10T19:40:17.413Z,102167.91
2019-01-10T19:46:23.455Z,102157.75
2019-01-10T19:52:29.222Z,102156.17
2019-01-10T19:58:35.329Z,102162.45
2019-01-10T20:04:41.323Z,102168.19
2019-01-10T20:10:47.353Z,102169.10
2019-01-10T20:16:53.436Z,102173.62
2019-01-10T20:23:00.245Z,102175.05
2019-01-10T20:29:06.949Z,102181.70
2019-01-10T20:35:14.081Z,102172.02
2019-01-10T20:41:19.964Z,102177.24
2019-01-10T20:47:25.748Z,102176.48
2019-01-10T20:53:31.475Z,102175.67
2019-01-10T20:59:37.466Z,102182.62
2019-01-10T21:05:43.226Z,102175.47
2019-01-10T21:11:49.243Z,102171.56
2019-01-10T21:17:55.414Z,102171.69
2019-01-10T21:24:01.291Z,102172.19
2019-01-10T21:30:10.427Z,102171.13
2019-01-10T21:36:16.382Z,102177.66
2019-01-10T21:42:22.576Z,102172.09
2019-01-10T21:48:28.436Z,102175.94
2019-01-10T21:54:35.512Z,102174.64
2019-01-10T22:00:41.452Z,102176.41
2019-01-10T22:06:47.471Z,102170.17
2019-01-10T22:12:54.293Z,102177.03
2019-01-10T22:19:00.365Z,102170.94
2019-01-10T22:25:07.101Z,102180.99
2019-01-10T22:31:13.323Z,102180.31
2019-01-10T22:37:19.598Z,102179.43
2019-01-10T22:43:25.398Z,102166.78
2019-01-10T22:49:31.230Z,102175.10
2019-01-10T22:55:37.311Z,102162.91
2019-01-10T23:01:57.062Z,102163.73
2019-01-10T23:08:02.842Z,102150.55
2019-01-10T23:14:09.657Z,102153.60
2019-01-10T23:20:15.798Z,102150.23
2019-01-10T23:26:21.619Z,102151.62
2019-01-10T23:32:27.656Z,102137.34
2019-01-10T23:38:33.692Z,102129.94
2019-01-10T23:44:39.524Z,102127.50
2019-01-10T23:50:45.211Z,102129.27
2019-01-10T23:56:51.082Z,102125.91
